Time;durP1;ratioP1;P1;durP2;ratioP2;P2;SDS_P1;SDS_P2;PMS_P1;PMS_P2;Temp;Humidity;BMP_temperature;BMP_pressure;BME280_temperature;BME280_humidity;BME280_pressure;Samples;Min_cycle;Max_cycle;Signal;HPM_P1;HPM_P2
2021/06/05 00:02:20;;;;;;;95.40;56.35;;;22.90;61.70;;;;;;5009528;28;20407;-63
2021/06/05 00:04:45;;;;;;;98.35;58.00;;;22.80;61.80;;;;;;5011880;28;20042;-63
2021/06/05 00:07:11;;;;;;;93.68;57.85;;;22.80;62.00;;;;;;5005823;28;20048;-63
2021/06/05 00:09:39;;;;;;;92.18;58.67;;;22.80;62.00;;;;;;5005107;28;21011;-64
2021/06/05 00:12:06;;;;;;;93.07;58.67;;;22.80;62.00;;;;;;5011891;28;20045;-64
2021/06/05 00:14:31;;;;;;;98.28;58.28;;;22.80;62.00;;;;;;4991566;28;20051;-63
2021/06/05 00:17:02;;;;;;;91.78;56.20;;;22.80;62.10;;;;;;5010290;28;20495;-64
2021/06/05 00:19:30;;;;;;;92.78;58.08;;;22.80;62.10;;;;;;5013251;28;20453;-64
2021/06/05 00:21:56;;;;;;;85.72;55.17;;;22.80;62.10;;;;;;5016434;28;20037;-64
2021/06/05 00:24:23;;;;;;;89.70;54.83;;;22.80;62.10;;;;;;5012466;28;20415;-64
2021/06/05 00:26:50;;;;;;;89.82;55.72;;;22.80;62.10;;;;;;5010655;28;20103;-65
2021/06/05 00:29:17;;;;;;;87.20;56.60;;;22.80;62.10;;;;;;5011621;28;20537;-64
2021/06/05 00:31:43;;;;;;;94.45;58.15;;;22.80;62.20;;;;;;5011932;28;20504;-63
2021/06/05 00:34:11;;;;;;;94.72;58.33;;;22.80;62.20;;;;;;5008143;28;20061;-63
2021/06/05 00:36:37;;;;;;;88.57;56.92;;;22.80;62.30;;;;;;5001923;28;20045;-64
2021/06/05 00:39:04;;;;;;;94.72;58.42;;;22.80;62.40;;;;;;5005585;28;20037;-63
2021/06/05 00:41:37;;;;;;;97.90;59.28;;;22.80;62.40;;;;;;5008835;28;20109;-64
2021/06/05 00:44:08;;;;;;;96.20;59.42;;;22.70;62.30;;;;;;5006873;28;20522;-63
2021/06/05 00:46:34;;;;;;;91.57;59.17;;;22.70;62.30;;;;;;5021375;28;20564;-63
2021/06/05 00:49:02;;;;;;;96.53;58.22;;;22.70;62.30;;;;;;5006611;28;20046;-64
2021/06/05 00:51:42;;;;;;;84.18;52.63;;;22.70;62.40;;;;;;5006307;28;20045;-63
2021/06/05 00:54:11;;;;;;;86.30;52.47;;;22.60;62.20;;;;;;5003820;28;20044;-63
2021/06/05 00:56:37;;;;;;;99.85;59.25;;;22.60;62.30;;;;;;5001863;28;20041;-63
2021/06/05 00:59:03;;;;;;;95.75;59.65;;;22.50;62.20;;;;;;5005822;28;20042;-64
2021/06/05 01:01:30;;;;;;;96.25;63.42;;;22.50;62.40;;;;;;5025992;28;20658;-63
2021/06/05 01:03:58;;;;;;;105.43;63.65;;;22.50;62.50;;;;;;5004969;28;20420;-63
2021/06/05 01:06:36;;;;;;;111.28;63.10;;;22.40;62.40;;;;;;5008543;28;20072;-64
2021/06/05 01:09:09;;;;;;;115.82;67.10;;;22.40;62.50;;;;;;5002967;28;20036;-63
2021/06/05 01:11:43;;;;;;;110.85;64.15;;;22.40;62.50;;;;;;5003235;28;20048;-64
2021/06/05 01:14:26;;;;;;;116.53;65.35;;;22.40;62.50;;;;;;5007137;28;20049;-64
2021/06/05 01:17:22;;;;;;;110.32;64.28;;;22.30;62.60;;;;;;5006401;28;20041;-64
2021/06/05 01:20:12;;;;;;;111.50;63.83;;;22.30;62.60;;;;;;5006719;28;20033;-64
2021/06/05 01:23:16;;;;;;;107.45;62.67;;;22.30;62.60;;;;;;4997627;28;20041;-63
2021/06/05 01:26:00;;;;;;;105.38;61.75;;;22.20;62.60;;;;;;5008263;28;20061;-63
2021/06/05 01:28:48;;;;;;;105.90;61.95;;;22.20;62.70;;;;;;5020242;28;20038;-64
2021/06/05 01:31:20;;;;;;;106.55;61.70;;;22.20;62.80;;;;;;5002085;28;20330;-64
2021/06/05 01:33:46;;;;;;;108.22;61.60;;;22.10;62.80;;;;;;5008067;28;20080;-64
2021/06/05 01:36:13;;;;;;;114.00;62.67;;;22.10;62.90;;;;;;5005371;28;20033;-64
2021/06/05 01:38:47;;;;;;;107.13;61.92;;;22.10;63.00;;;;;;4998320;28;20049;-64
2021/06/05 01:41:15;;;;;;;101.95;58.95;;;22.10;63.10;;;;;;4996858;28;20053;-64
2021/06/05 01:43:43;;;;;;;103.18;59.05;;;22.00;63.10;;;;;;5010221;28;20095;-64
2021/06/05 01:46:13;;;;;;;96.85;58.03;;;22.00;63.10;;;;;;5012946;28;20052;-64
2021/06/05 01:48:39;;;;;;;104.30;61.50;;;22.00;63.10;;;;;;5010909;28;20281;-64
2021/06/05 01:51:09;;;;;;;105.65;61.58;;;22.00;63.10;;;;;;5011160;28;20068;-64
2021/06/05 01:53:41;;;;;;;99.30;59.08;;;22.00;63.20;;;;;;5010180;28;20132;-63
2021/06/05 01:56:16;;;;;;;102.32;60.08;;;22.00;63.20;;;;;;5024810;28;20052;-64
2021/06/05 01:58:45;;;;;;;101.00;59.85;;;21.90;63.90;;;;;;5008720;28;20048;-64
2021/06/05 02:01:13;;;;;;;92.93;57.13;;;21.90;63.20;;;;;;5009952;28;20048;-64
2021/06/05 02:03:44;;;;;;;89.63;55.45;;;21.90;63.30;;;;;;5018526;28;20618;-64
2021/06/05 02:06:13;;;;;;;97.15;56.53;;;21.90;63.10;;;;;;5015413;28;20059;-64
2021/06/05 02:08:40;;;;;;;105.40;59.33;;;21.90;63.10;;;;;;5014288;28;20443;-65
2021/06/05 02:11:12;;;;;;;104.50;59.63;;;21.90;63.30;;;;;;5008195;28;20098;-63
2021/06/05 02:14:11;;;;;;;103.57;61.13;;;21.80;63.50;;;;;;5008894;28;20033;-64
2021/06/05 02:16:44;;;;;;;105.63;61.05;;;21.80;63.40;;;;;;5009978;28;20515;-64
2021/06/05 02:19:17;;;;;;;96.72;57.60;;;21.90;63.60;;;;;;5009487;28;20055;-63
2021/06/05 02:21:49;;;;;;;103.57;60.53;;;21.90;63.60;;;;;;5023292;28;20045;-64
2021/06/05 02:24:20;;;;;;;102.20;59.40;;;21.90;63.70;;;;;;5005690;28;20065;-64
2021/06/05 02:26:47;;;;;;;100.07;58.58;;;21.90;63.70;;;;;;5009185;28;24280;-63
2021/06/05 02:29:15;;;;;;;107.15;60.25;;;21.90;63.80;;;;;;5007414;28;20490;-64
2021/06/05 02:31:42;;;;;;;100.15;59.65;;;21.90;63.80;;;;;;5000919;28;20481;-64
2021/06/05 02:34:11;;;;;;;98.15;57.42;;;22.00;64.00;;;;;;5006975;28;20033;-63
2021/06/05 02:36:42;;;;;;;90.05;56.90;;;22.00;63.90;;;;;;5008696;28;20041;-63
2021/06/05 02:39:08;;;;;;;97.43;58.95;;;22.00;63.90;;;;;;5011378;28;20049;-63
2021/06/05 02:41:35;;;;;;;91.00;58.03;;;22.00;63.80;;;;;;5014321;28;20042;-64
2021/06/05 02:44:01;;;;;;;99.55;57.72;;;22.00;63.80;;;;;;5006360;28;20099;-64
2021/06/05 02:46:36;;;;;;;90.97;58.58;;;22.00;63.80;;;;;;5013667;28;20046;-63
2021/06/05 02:49:07;;;;;;;95.20;58.17;;;22.00;63.80;;;;;;5009019;28;20396;-65
2021/06/05 02:51:40;;;;;;;93.97;57.42;;;22.00;63.70;;;;;;5010441;28;20102;-64
2021/06/05 02:54:08;;;;;;;91.72;57.35;;;22.00;64.50;;;;;;5008658;28;20041;-63
2021/06/05 02:56:36;;;;;;;91.20;57.38;;;22.00;63.80;;;;;;5008601;28;23211;-64
2021/06/05 02:59:05;;;;;;;92.65;56.58;;;22.00;63.70;;;;;;5006715;28;20052;-64
2021/06/05 03:01:30;;;;;;;87.88;57.10;;;21.90;63.70;;;;;;5006427;28;20041;-64
2021/06/05 03:03:59;;;;;;;93.55;57.53;;;21.90;63.80;;;;;;5007549;28;20657;-64
2021/06/05 03:06:25;;;;;;;90.32;55.17;;;21.90;63.90;;;;;;5006310;28;20829;-64
2021/06/05 03:08:51;;;;;;;88.85;55.88;;;21.90;63.90;;;;;;5005729;28;20037;-64
2021/06/05 03:11:20;;;;;;;90.43;57.75;;;21.90;63.90;;;;;;5008004;28;20124;-63
2021/06/05 03:13:48;;;;;;;87.15;56.03;;;22.00;64.10;;;;;;4999753;28;20052;-64
2021/06/05 03:16:16;;;;;;;91.43;57.63;;;22.00;64.10;;;;;;5010690;28;20447;-63
2021/06/05 03:18:44;;;;;;;95.85;60.88;;;22.00;64.00;;;;;;5001514;28;20198;-63
2021/06/05 03:21:15;;;;;;;91.72;58.10;;;22.00;63.90;;;;;;5009662;28;20036;-63
2021/06/05 03:23:44;;;;;;;91.70;57.83;;;22.00;64.00;;;;;;5010375;28;20154;-63
2021/06/05 03:26:10;;;;;;;81.22;53.35;;;22.00;63.90;;;;;;5007158;28;20505;-64
2021/06/05 03:28:36;;;;;;;82.78;54.42;;;22.00;63.80;;;;;;5005067;28;20048;-64
2021/06/05 03:31:03;;;;;;;81.70;52.60;;;22.10;63.80;;;;;;5008735;28;20111;-64
2021/06/05 03:33:34;;;;;;;78.53;51.58;;;22.00;63.80;;;;;;4988616;28;20041;-63
2021/06/05 03:35:59;;;;;;;81.57;53.58;;;22.00;63.80;;;;;;5003945;28;20053;-64
2021/06/05 03:38:26;;;;;;;81.30;52.60;;;22.00;63.80;;;;;;5019296;28;20033;-64
2021/06/05 03:40:57;;;;;;;88.15;55.95;;;22.00;63.90;;;;;;5006756;28;20053;-64
2021/06/05 03:43:23;;;;;;;92.35;58.65;;;22.10;64.00;;;;;;5006412;28;20040;-65
2021/06/05 03:45:50;;;;;;;86.97;57.70;;;22.10;63.90;;;;;;5011831;28;20037;-63
2021/06/05 03:48:17;;;;;;;89.80;56.08;;;22.10;64.00;;;;;;5008540;28;20069;-64
2021/06/05 03:50:50;;;;;;;87.22;55.72;;;22.10;64.00;;;;;;5003877;28;20075;-64
2021/06/05 03:53:21;;;;;;;86.70;56.13;;;22.20;64.00;;;;;;5006820;28;20045;-63
2021/06/05 03:55:47;;;;;;;84.07;54.17;;;22.20;64.00;;;;;;5015787;28;20173;-64
2021/06/05 03:58:13;;;;;;;90.82;57.17;;;22.20;64.00;;;;;;5001499;28;20037;-64
2021/06/05 04:00:45;;;;;;;84.43;56.78;;;22.30;64.20;;;;;;5006298;28;20484;-63
2021/06/05 04:03:16;;;;;;;82.70;54.33;;;22.30;64.10;;;;;;5005567;28;20045;-64
2021/06/05 04:05:42;;;;;;;77.97;52.63;;;22.30;64.00;;;;;;5004613;28;20155;-64
2021/06/05 04:08:11;;;;;;;86.50;56.05;;;22.30;64.60;;;;;;5009861;28;20053;-63
2021/06/05 04:10:39;;;;;;;82.28;55.20;;;22.30;63.80;;;;;;5006345;28;20033;-64
2021/06/05 04:13:07;;;;;;;98.60;62.80;;;22.40;64.00;;;;;;5005801;28;20042;-63
2021/06/05 04:15:36;;;;;;;86.25;58.15;;;22.40;64.00;;;;;;4997355;28;21163;-64
2021/06/05 04:18:13;;;;;;;91.03;57.13;;;22.40;63.90;;;;;;5002302;28;20064;-63
2021/06/05 04:20:41;;;;;;;76.72;52.08;;;22.40;63.90;;;;;;5008242;28;20034;-64
2021/06/05 04:23:08;;;;;;;72.70;53.83;;;22.50;63.90;;;;;;5005147;28;20029;-63
2021/06/05 04:25:37;;;;;;;77.40;52.90;;;22.50;63.90;;;;;;5005678;28;20037;-64
2021/06/05 04:28:06;;;;;;;76.88;53.15;;;22.50;64.00;;;;;;5001574;28;20072;-64
2021/06/05 04:30:36;;;;;;;74.00;52.38;;;22.60;64.10;;;;;;5006951;28;20056;-63
2021/06/05 04:33:01;;;;;;;70.90;53.42;;;22.60;64.00;;;;;;5010796;28;20036;-64
2021/06/05 04:35:27;;;;;;;64.38;50.03;;;22.70;64.10;;;;;;5002457;28;20061;-64
2021/06/05 04:37:53;;;;;;;64.13;48.72;;;22.70;64.10;;;;;;4995304;28;20038;-63
2021/06/05 04:40:21;;;;;;;65.13;48.28;;;22.80;64.10;;;;;;4998677;28;20076;-63
2021/06/05 04:42:49;;;;;;;64.10;46.78;;;22.90;63.80;;;;;;4997439;28;20045;-64
2021/06/05 04:45:15;;;;;;;64.82;46.53;;;23.00;63.70;;;;;;5008770;28;20068;-65
2021/06/05 04:47:41;;;;;;;53.65;42.95;;;23.10;63.50;;;;;;5006038;28;20042;-65
2021/06/05 04:50:10;;;;;;;53.00;43.47;;;23.20;63.30;;;;;;5005211;28;20032;-64
2021/06/05 04:52:35;;;;;;;50.72;41.92;;;23.30;63.10;;;;;;5006224;28;20495;-64
2021/06/05 04:55:02;;;;;;;48.95;40.53;;;23.40;62.80;;;;;;5002817;28;20048;-64
2021/06/05 04:57:28;;;;;;;51.38;39.83;;;23.50;62.60;;;;;;5012180;28;20108;-64
2021/06/05 04:59:53;;;;;;;51.58;39.30;;;23.60;62.30;;;;;;5016420;28;20555;-63
2021/06/05 05:02:19;;;;;;;45.88;38.10;;;23.60;62.10;;;;;;5010203;28;20528;-64
2021/06/05 05:04:44;;;;;;;44.15;37.55;;;23.70;61.80;;;;;;5013715;28;20492;-64
2021/06/05 05:07:14;;;;;;;43.97;36.88;;;23.90;61.50;;;;;;5007192;28;20102;-64
2021/06/05 05:09:39;;;;;;;41.30;35.85;;;23.90;61.10;;;;;;5009507;28;20537;-64
2021/06/05 05:12:06;;;;;;;41.05;33.60;;;24.10;60.90;;;;;;5013532;28;20045;-64
2021/06/05 05:14:36;;;;;;;41.60;35.25;;;24.20;60.60;;;;;;5000894;28;20206;-64
2021/06/05 05:17:02;;;;;;;41.13;35.25;;;24.30;60.00;;;;;;5008708;28;20102;-63
2021/06/05 05:19:28;;;;;;;45.40;34.05;;;24.40;59.70;;;;;;5006279;28;20037;-64
2021/06/05 05:21:54;;;;;;;38.33;33.10;;;24.50;59.60;;;;;;5011043;28;20542;-64
2021/06/05 05:24:21;;;;;;;37.50;33.28;;;24.60;59.20;;;;;;5011122;28;20572;-63
2021/06/05 05:26:47;;;;;;;39.70;33.35;;;24.60;58.90;;;;;;5013871;28;20045;-64
2021/06/05 05:29:15;;;;;;;38.17;32.42;;;24.70;58.70;;;;;;5005861;28;20029;-64
2021/06/05 05:31:41;;;;;;;38.00;32.33;;;24.60;58.50;;;;;;5010451;28;20041;-64
2021/06/05 05:34:08;;;;;;;39.05;32.53;;;24.60;58.20;;;;;;5011104;28;20033;-64
2021/06/05 05:36:36;;;;;;;44.17;33.88;;;24.50;58.20;;;;;;5021936;28;20684;-64
2021/06/05 05:39:08;;;;;;;36.08;32.17;;;24.50;58.20;;;;;;5003800;28;20049;-63
2021/06/05 05:41:34;;;;;;;38.50;32.63;;;24.50;58.30;;;;;;5012408;28;20695;-64
2021/06/05 05:44:04;;;;;;;40.85;33.85;;;24.40;58.30;;;;;;5010416;28;20045;-64
2021/06/05 05:46:30;;;;;;;41.70;34.90;;;24.40;58.50;;;;;;5008131;28;20264;-64
2021/06/05 05:48:58;;;;;;;42.72;33.92;;;24.30;58.50;;;;;;5010330;28;20033;-64
2021/06/05 05:51:24;;;;;;;41.25;34.22;;;24.20;58.60;;;;;;5007757;28;20076;-63
2021/06/05 05:53:51;;;;;;;43.28;34.65;;;24.10;58.60;;;;;;5023729;28;20037;-63
2021/06/05 05:56:19;;;;;;;40.17;33.95;;;24.10;58.90;;;;;;5013193;28;20091;-64
2021/06/05 05:58:49;;;;;;;40.60;35.00;;;24.00;59.00;;;;;;5005099;28;20041;-63
2021/06/05 06:01:19;;;;;;;42.85;36.03;;;24.00;59.20;;;;;;5004760;28;20034;-63
2021/06/05 06:03:44;;;;;;;48.17;35.47;;;23.90;59.20;;;;;;5005377;28;20037;-64
2021/06/05 06:06:10;;;;;;;49.60;38.55;;;23.90;59.50;;;;;;5006649;28;20047;-64
2021/06/05 06:08:38;;;;;;;52.88;40.13;;;23.90;59.70;;;;;;5007407;28;20039;-64
2021/06/05 06:11:05;;;;;;;50.97;41.92;;;23.90;60.00;;;;;;5007902;28;20040;-64
2021/06/05 06:13:31;;;;;;;52.58;40.67;;;23.90;60.30;;;;;;5006365;28;20815;-64
2021/06/05 06:15:57;;;;;;;59.83;43.15;;;23.90;60.50;;;;;;5000605;28;20053;-64
2021/06/05 06:18:25;;;;;;;59.67;45.38;;;23.90;60.70;;;;;;5006057;28;20042;-64
2021/06/05 06:20:55;;;;;;;55.55;42.72;;;23.90;60.80;;;;;;5000834;28;20432;-64
2021/06/05 06:23:29;;;;;;;57.17;44.03;;;23.80;61.00;;;;;;5007192;28;20057;-65
2021/06/05 06:25:59;;;;;;;60.17;45.63;;;23.80;61.10;;;;;;5010924;28;20507;-65
2021/06/05 06:28:28;;;;;;;59.58;45.85;;;23.80;61.20;;;;;;5005046;28;20037;-64
2021/06/05 06:30:54;;;;;;;59.95;46.92;;;23.80;61.20;;;;;;5006254;28;20137;-64
2021/06/05 06:33:21;;;;;;;64.28;47.60;;;23.70;61.40;;;;;;5006860;28;20041;-64
2021/06/05 06:35:50;;;;;;;64.88;46.85;;;23.70;61.70;;;;;;5005347;28;20034;-65
2021/06/05 06:38:30;;;;;;;63.58;47.40;;;23.60;61.80;;;;;;5013173;28;20598;-64
2021/06/05 06:40:57;;;;;;;60.85;47.47;;;23.60;61.90;;;;;;5008734;28;20034;-64
2021/06/05 06:43:25;;;;;;;63.78;48.05;;;23.50;61.90;;;;;;5007096;28;20132;-64
2021/06/05 06:45:56;;;;;;;66.25;47.42;;;23.50;62.20;;;;;;5011643;28;20037;-64
2021/06/05 06:48:25;;;;;;;78.68;49.17;;;23.50;62.40;;;;;;5011057;28;20038;-64
2021/06/05 06:50:50;;;;;;;68.03;48.35;;;23.40;62.60;;;;;;5009220;28;20075;-65
2021/06/05 06:53:17;;;;;;;69.18;50.63;;;23.40;62.60;;;;;;5009716;28;20045;-65
2021/06/05 06:55:46;;;;;;;76.80;51.97;;;23.40;62.80;;;;;;5007472;28;20056;-65
2021/06/05 06:58:14;;;;;;;72.70;50.75;;;23.40;63.00;;;;;;5008284;28;20037;-65
2021/06/05 07:00:43;;;;;;;77.68;51.72;;;23.40;63.00;;;;;;5012711;28;20045;-65
2021/06/05 07:03:14;;;;;;;74.75;52.22;;;23.40;63.10;;;;;;5013246;28;20055;-65
2021/06/05 07:05:42;;;;;;;77.50;51.58;;;23.40;63.30;;;;;;5011947;28;20051;-65
2021/06/05 07:08:08;;;;;;;73.18;51.53;;;23.40;63.40;;;;;;5010841;28;20188;-66
2021/06/05 07:10:37;;;;;;;71.38;50.00;;;23.40;63.40;;;;;;5008408;28;20037;-67
2021/06/05 07:13:06;;;;;;;68.82;47.65;;;23.40;63.50;;;;;;5011258;28;20091;-67
2021/06/05 07:15:33;;;;;;;69.80;50.47;;;23.40;63.50;;;;;;5006591;28;20048;-67
2021/06/05 07:18:04;;;;;;;73.95;50.95;;;23.40;63.60;;;;;;5012284;28;20056;-67
2021/06/05 07:20:33;;;;;;;65.93;44.88;;;23.30;63.70;;;;;;5008717;28;20100;-68
2021/06/05 07:22:59;;;;;;;69.80;48.40;;;23.30;63.90;;;;;;5003868;28;20037;-68
2021/06/05 07:25:27;;;;;;;69.32;46.53;;;23.20;64.00;;;;;;5013477;28;20045;-68
2021/06/05 07:27:54;;;;;;;67.65;43.28;;;23.20;64.10;;;;;;5024516;28;20052;-67
2021/06/05 07:30:23;;;;;;;59.22;41.53;;;;;;;;;;5014048;28;20037;-68
2021/06/05 07:32:51;;;;;;;72.10;42.13;;;;;;;;;;5005492;28;20662;-68
2021/06/05 07:35:20;;;;;;;62.92;41.83;;;;;;;;;;5015138;28;20037;-71
2021/06/05 07:37:48;;;;;;;72.97;40.97;;;;;;;;;;5009004;28;20168;-70
2021/06/05 07:40:15;;;;;;;69.15;43.05;;;;;;;;;;5007366;28;20045;-70
2021/06/05 07:42:40;;;;;;;134.43;46.97;;;;;;;;;;5007201;28;20238;-69
2021/06/05 07:45:08;;;;;;;84.53;44.88;;;;;;;;;;5006687;28;20045;-69
2021/06/05 07:47:34;;;;;;;82.53;46.70;;;;;;;;;;5000387;28;20037;-69
2021/06/05 07:50:00;;;;;;;80.20;46.40;;;;;;;;;;5000256;28;20037;-70
2021/06/05 07:52:26;;;;;;;88.95;46.05;;;;;;;;;;5003096;28;20064;-67
2021/06/05 07:54:55;;;;;;;81.32;48.85;;;;;;;;;;5013491;28;20033;-68
2021/06/05 07:57:24;;;;;;;89.80;50.53;;;;;;;;;;5010162;28;20543;-67
2021/06/05 07:59:50;;;;;;;84.80;49.35;;;;;;;;;;5007714;28;20056;-68
2021/06/05 08:02:16;;;;;;;82.82;51.50;;;;;;;;;;5027655;28;20510;-69
2021/06/05 08:04:42;;;;;;;93.10;51.17;;;;;;;;;;5009378;28;20055;-69
2021/06/05 08:07:08;;;;;;;87.22;50.40;;;;;;;;;;5006689;28;20053;-69
2021/06/05 08:09:37;;;;;;;139.45;53.00;;;;;;;;;;5009540;28;20124;-69
2021/06/05 08:12:05;;;;;;;95.55;53.38;;;;;;;;;;5011939;28;20147;-69
2021/06/05 08:14:31;;;;;;;103.68;56.35;;;;;;;;;;5005826;28;20048;-69
2021/06/05 08:17:02;;;;;;;111.22;59.67;;;;;;;;;;5013425;28;20042;-69
2021/06/05 08:19:31;;;;;;;119.50;58.05;;;;;;;;;;4999202;28;20064;-69
2021/06/05 08:21:57;;;;;;;101.10;57.88;;;;;;;;;;5004281;28;20041;-69
2021/06/05 08:24:23;;;;;;;113.07;59.17;;;;;;;;;;5011879;28;20076;-71
2021/06/05 08:26:53;;;;;;;119.25;58.63;;;;;;;;;;5010204;28;21530;-69
2021/06/05 08:29:19;;;;;;;121.60;61.10;;;;;;;;;;5002504;28;20867;-69
2021/06/05 08:31:47;;;;;;;115.10;60.22;;;;;;;;;;5007165;28;20045;-69
2021/06/05 08:34:13;;;;;;;115.80;59.83;;;;;;;;;;5008882;28;20044;-69
2021/06/05 08:36:41;;;;;;;108.78;61.30;;;23.20;64.10;;;;;;5004922;28;21269;-69
2021/06/05 08:39:10;;;;;;;126.30;60.75;;;;;;;;;;5005881;28;20061;-69
